Time;durP1;ratioP1;P1;durP2;ratioP2;P2;SDS_P1;SDS_P2;PMS_P1;PMS_P2;Temp;Humidity;BMP_temperature;BMP_pressure;BME280_temperature;BME280_humidity;BME280_pressure;Samples;Min_cycle;Max_cycle;Signal;HPM_P1;HPM_P2
2022/10/09 00:01:31;;;;;;;10.50;1.23;;;;;;;13.46;77.38;101898.28;7386509;19;20318;-69
2022/10/09 00:03:58;;;;;;;6.07;1.50;;;;;;;13.44;76.79;101893.13;7385720;19;20022;-68
2022/10/09 00:06:32;;;;;;;10.10;1.35;;;;;;;13.43;76.14;101895.91;7383675;19;20032;-68
2022/10/09 00:09:02;;;;;;;7.13;1.27;;;;;;;13.41;75.87;101898.69;7385067;19;20014;-69
2022/10/09 00:11:32;;;;;;;8.85;1.77;;;;;;;13.39;76.44;101890.09;7387033;19;20471;-69
2022/10/09 00:14:00;;;;;;;7.55;1.20;;;;;;;13.41;77.28;101880.19;7387563;19;20034;-68
2022/10/09 00:16:28;;;;;;;13.20;1.45;;;;;;;13.42;76.89;101883.66;7387412;19;20022;-68
2022/10/09 00:18:56;;;;;;;7.65;1.35;;;;;;;13.40;76.34;101878.53;7387180;19;20010;-67
2022/10/09 00:21:24;;;;;;;7.65;1.30;;;;;;;13.40;76.06;101883.00;7387439;19;20491;-71
2022/10/09 00:23:53;;;;;;;8.30;1.75;;;;;;;13.37;76.04;101880.63;7387251;19;20483;-70
2022/10/09 00:26:21;;;;;;;4.88;1.05;;;;;;;13.36;75.87;101873.69;7386105;19;20451;-68
2022/10/09 00:28:48;;;;;;;5.22;1.48;;;;;;;13.31;76.10;101876.72;7388710;19;20385;-68
2022/10/09 00:31:15;;;;;;;8.07;1.48;;;;;;;13.27;76.41;101870.06;7387499;19;20074;-68
2022/10/09 00:33:42;;;;;;;6.55;1.33;;;;;;;13.23;77.10;101871.34;7387107;19;20010;-69
2022/10/09 00:36:21;;;;;;;4.40;1.10;;;;;;;13.21;77.43;101873.28;7386292;19;20042;-69
2022/10/09 00:38:49;;;;;;;9.13;2.97;;;;;;;13.19;77.36;101873.47;7387471;19;20021;-68
2022/10/09 00:41:19;;;;;;;13.95;1.88;;;;;;;13.20;78.68;101871.66;7385830;19;20300;-69
2022/10/09 00:43:49;;;;;;;6.30;1.20;;;;;;;13.21;77.79;101870.66;7385596;19;20014;-69
2022/10/09 00:46:47;;;;;;;18.60;6.60;;;;;;;13.22;78.49;101874.97;7384769;19;20332;-69
2022/10/09 00:49:27;;;;;;;12.75;1.48;;;;;;;13.19;77.21;101876.09;7385441;19;20447;-68
2022/10/09 00:51:57;;;;;;;7.63;1.42;;;;;;;13.20;76.86;101875.13;7387525;19;20019;-67
2022/10/09 00:54:28;;;;;;;9.70;1.33;;;;;;;13.19;77.23;101876.09;7377762;19;20038;-68
2022/10/09 00:56:55;;;;;;;13.05;4.18;;;;;;;13.19;76.95;101872.63;7385999;19;20479;-69
2022/10/09 00:59:30;;;;;;;10.18;1.70;;;;;;;13.17;77.58;101874.56;7385766;19;20010;-67
2022/10/09 01:01:57;;;;;;;7.22;1.27;;;;;;;13.15;77.63;101869.44;7386284;19;20022;-68
2022/10/09 01:04:24;;;;;;;14.30;4.30;;;;;;;13.15;77.82;101865.97;7385506;19;20775;-68
2022/10/09 01:07:12;;;;;;;10.55;1.73;;;;;;;13.14;77.48;101862.47;7385875;19;20022;-68
2022/10/09 01:09:54;;;;;;;9.52;1.50;;;;;;;13.14;77.37;101859.00;7385058;19;20018;-68
2022/10/09 01:12:41;;;;;;;6.40;1.17;;;;;;;13.11;76.91;101860.09;7385500;19;20021;-67
2022/10/09 01:15:18;;;;;;;6.55;0.98;;;;;;;13.07;76.94;101864.00;7383728;19;20022;-67
2022/10/09 01:18:10;;;;;;;8.82;1.58;;;;;;;13.07;77.89;101853.41;7385066;19;20378;-67
2022/10/09 01:20:46;;;;;;;7.73;1.30;;;;;;;13.05;77.70;101855.38;7383266;19;20035;-69
2022/10/09 01:23:44;;;;;;;7.40;1.05;;;;;;;13.04;77.51;101842.31;7383482;19;20014;-67
2022/10/09 01:26:29;;;;;;;8.57;1.70;;;;;;;13.00;77.15;101847.06;7382983;19;20043;-68
2022/10/09 01:29:00;;;;;;;6.15;1.00;;;;;;;12.98;77.12;101846.34;7383607;19;20389;-69
2022/10/09 01:31:29;;;;;;;5.75;1.08;;;;;;;12.97;76.90;101846.50;7385066;19;21043;-68
2022/10/09 01:34:00;;;;;;;4.95;0.82;;;;;;;12.93;76.96;101843.31;7384099;19;20407;-68
2022/10/09 01:36:29;;;;;;;5.32;0.95;;;;;;;12.92;77.48;101840.81;7385031;19;20011;-68
2022/10/09 01:39:00;;;;;;;10.23;1.75;;;;;;;12.91;76.98;101842.63;7380559;19;20407;-69
2022/10/09 01:41:28;;;;;;;9.88;1.52;;;;;;;12.90;76.91;101837.50;7382547;19;20511;-67
2022/10/09 01:43:55;;;;;;;7.22;1.35;;;;;;;12.91;78.16;101839.97;7370673;19;20014;-69
2022/10/09 01:46:31;;;;;;;4.85;0.90;;;;;;;12.92;77.87;101831.06;7383814;19;20018;-68
2022/10/09 01:49:07;;;;;;;6.25;0.80;;;;;;;12.94;77.81;101823.03;7384392;19;20024;-68
2022/10/09 01:51:44;;;;;;;6.80;1.17;;;;;;;12.95;77.81;101832.63;7384676;19;20516;-68
2022/10/09 01:54:16;;;;;;;8.68;1.27;;;;;;;12.92;77.39;101827.59;7379746;19;20059;-67
2022/10/09 01:56:47;;;;;;;7.33;1.37;;;;;;;12.88;76.97;101818.31;7381173;19;20018;-68
2022/10/09 01:59:19;;;;;;;9.13;1.25;;;;;;;12.89;78.28;101820.81;7382798;19;20007;-68
2022/10/09 02:01:59;;;;;;;8.90;1.05;;;;;;;12.85;77.62;101811.47;7383855;19;20015;-68
2022/10/09 02:04:28;;;;;;;6.10;1.20;;;;;;;12.81;77.54;101804.81;7382172;19;20018;-67
2022/10/09 02:06:55;;;;;;;8.40;0.95;;;;;;;12.78;77.69;101803.31;7384931;19;20018;-68
2022/10/09 02:09:24;;;;;;;7.43;0.90;;;;;;;12.79;78.04;101799.72;7382844;19;20038;-68
2022/10/09 02:11:56;;;;;;;7.65;1.40;;;;;;;12.80;78.24;101790.78;7384011;19;20011;-70
2022/10/09 02:14:23;;;;;;;9.20;0.80;;;;;;;12.79;76.89;101789.13;7382929;19;20014;-68
2022/10/09 02:17:01;;;;;;;6.75;1.17;;;;;;;12.76;76.51;101786.75;7384924;19;20060;-67
2022/10/09 02:19:33;;;;;;;5.28;1.00;;;;;;;12.75;76.90;101779.81;7382856;19;20011;-67
2022/10/09 02:22:12;;;;;;;6.03;1.10;;;;;;;12.72;76.84;101780.13;7383386;19;20010;-67
2022/10/09 02:24:41;;;;;;;6.93;1.80;;;;;;;12.70;76.71;101778.56;7382261;19;20050;-68
2022/10/09 02:27:09;;;;;;;3.15;0.80;;;;;;;12.66;77.21;101772.75;7381144;19;20369;-67
2022/10/09 02:29:42;;;;;;;8.52;1.20;;;;;;;12.64;77.02;101772.09;7389118;19;20011;-68
2022/10/09 02:32:09;;;;;;;4.77;0.70;;;;;;;12.63;76.87;101766.94;7390947;19;20019;-68
2022/10/09 02:34:36;;;;;;;6.68;1.15;;;;;;;12.59;77.45;101758.47;7389954;19;20352;-67
2022/10/09 02:37:04;;;;;;;6.60;1.20;;;;;;;12.56;77.81;101761.38;7391430;19;20049;-67
2022/10/09 02:39:31;;;;;;;9.32;1.80;;;;;;;12.60;78.42;101764.56;7388786;19;20014;-68
2022/10/09 02:41:58;;;;;;;6.28;0.85;;;;;;;12.60;78.27;101768.03;7388077;19;20026;-68
2022/10/09 02:44:25;;;;;;;4.93;1.50;;;;;;;12.59;77.84;101761.13;7387966;19;20090;-68
2022/10/09 02:46:52;;;;;;;11.48;1.85;;;;;;;12.58;78.02;101755.97;7388697;19;20021;-68
2022/10/09 02:49:28;;;;;;;11.63;5.07;;;;;;;12.58;78.69;101748.88;7389429;19;20028;-69
2022/10/09 02:51:55;;;;;;;6.25;1.45;;;;;;;12.60;79.43;101749.56;7391002;19;20025;-67
2022/10/09 02:54:23;;;;;;;11.40;1.05;;;;;;;12.59;78.41;101736.53;7387456;19;20031;-69
2022/10/09 02:56:50;;;;;;;8.25;2.42;;;;;;;12.61;78.65;101742.47;7386299;19;20112;-68
2022/10/09 02:59:17;;;;;;;10.00;1.42;;;;;;;12.62;78.72;101739.69;7388939;19;20026;-68
2022/10/09 03:01:43;;;;;;;12.15;1.88;;;;;;;12.64;78.56;101736.94;7390370;19;20369;-67
2022/10/09 03:04:10;;;;;;;4.90;1.27;;;;;;;12.65;78.31;101728.00;7387698;19;20018;-72
2022/10/09 03:06:37;;;;;;;10.10;1.20;;;;;;;12.66;77.96;101729.66;7389640;19;20015;-68
2022/10/09 03:09:04;;;;;;;10.27;1.15;;;;;;;12.67;78.58;101729.53;7382156;19;20404;-68
2022/10/09 03:11:31;;;;;;;4.88;0.70;;;;;;;12.68;78.77;101730.38;7390563;19;20014;-68
2022/10/09 03:13:58;;;;;;;7.90;1.17;;;;;;;12.68;78.54;101728.56;7387840;19;20014;-67
2022/10/09 03:16:25;;;;;;;8.80;1.20;;;;;;;12.71;78.54;101733.56;7389798;19;20022;-67
2022/10/09 03:18:53;;;;;;;5.45;1.17;;;;;;;12.76;78.49;101725.19;7390733;19;20593;-68
2022/10/09 03:21:22;;;;;;;6.97;1.38;;;;;;;12.78;78.93;101725.88;7389603;19;20038;-67
2022/10/09 03:23:50;;;;;;;7.15;1.20;;;;;;;12.79;78.09;101724.91;7387462;19;20022;-67
2022/10/09 03:26:20;;;;;;;8.30;0.82;;;;;;;12.78;78.50;101717.97;7388337;19;20019;-67
2022/10/09 03:28:48;;;;;;;9.73;3.25;;;;;;;12.79;78.32;101720.47;7388945;19;20015;-68
2022/10/09 03:31:17;;;;;;;7.93;1.10;;;;;;;12.80;78.61;101716.84;7389014;19;20013;-69
2022/10/09 03:34:04;;;;;;;7.63;1.10;;;;;;;12.77;77.97;101711.00;7388517;19;20011;-68
2022/10/09 03:36:31;;;;;;;6.13;1.13;;;;;;;12.75;77.94;101708.50;7389564;19;20014;-68
2022/10/09 03:38:57;;;;;;;7.32;1.65;;;;;;;12.74;77.97;101706.03;7387966;19;20339;-68
2022/10/09 03:41:25;;;;;;;7.93;1.50;;;;;;;12.72;78.06;101702.69;7384910;19;20037;-68
2022/10/09 03:43:52;;;;;;;6.05;1.55;;;;;;;12.71;78.09;101701.88;7388620;19;20049;-71
2022/10/09 03:46:19;;;;;;;5.95;1.20;;;;;;;12.70;78.30;101700.19;7386818;19;20018;-68
2022/10/09 03:48:46;;;;;;;7.93;1.65;;;;;;;12.70;78.21;101697.56;7389570;19;20613;-68
2022/10/09 03:51:13;;;;;;;6.03;1.23;;;;;;;12.74;78.60;101693.66;7387363;19;20014;-67
2022/10/09 03:53:39;;;;;;;5.22;0.80;;;;;;;12.74;78.45;101693.66;7390018;19;20360;-67
2022/10/09 03:56:06;;;;;;;7.90;0.68;;;;;;;12.74;78.30;101683.09;7383665;19;20021;-67
2022/10/09 03:58:33;;;;;;;5.80;0.80;;;;;;;12.73;77.89;101686.72;7386255;19;20046;-68
2022/10/09 04:01:00;;;;;;;4.43;0.80;;;;;;;12.76;78.38;101686.41;7387354;19;20018;-68
2022/10/09 04:03:27;;;;;;;6.65;1.52;;;;;;;12.74;78.29;101682.28;7390305;19;20010;-69
2022/10/09 04:05:54;;;;;;;5.50;0.73;;;;;;;12.75;77.81;101679.47;7386694;19;20043;-69
2022/10/09 04:08:27;;;;;;;7.05;0.75;;;;;;;12.77;77.66;101681.97;7388270;19;20014;-68
2022/10/09 04:10:58;;;;;;;4.55;0.60;;;;;;;12.75;77.60;101681.25;7385750;19;20015;-69
2022/10/09 04:13:25;;;;;;;7.13;0.70;;;;;;;12.73;77.72;101676.16;7388001;19;20380;-68
2022/10/09 04:15:53;;;;;;;2.60;0.40;;;;;;;12.74;78.34;101669.06;7387162;19;20086;-68
2022/10/09 04:18:21;;;;;;;3.58;0.50;;;;;;;12.76;78.47;101669.72;7389137;19;20486;-67
2022/10/09 04:20:50;;;;;;;5.78;1.02;;;;;;;12.75;78.33;101670.69;7386379;19;20364;-67
2022/10/09 04:23:18;;;;;;;2.55;0.50;;;;;;;12.71;78.32;101662.25;7385803;19;20014;-68
2022/10/09 04:25:45;;;;;;;3.63;0.52;;;;;;;12.70;78.62;101662.38;7385876;19;20042;-67
2022/10/09 04:28:14;;;;;;;3.40;0.40;;;;;;;12.68;78.92;101653.81;7386179;19;20025;-67
2022/10/09 04:30:51;;;;;;;7.05;0.50;;;;;;;12.68;78.79;101661.72;7387011;19;20078;-68
2022/10/09 04:33:18;;;;;;;4.97;1.00;;;;;;;12.66;79.01;101663.66;7387079;19;20018;-67
2022/10/09 04:35:48;;;;;;;5.25;0.43;;;;;;;12.66;78.80;101658.38;7386343;19;20009;-69
2022/10/09 04:38:16;;;;;;;3.42;0.55;;;;;;;12.62;79.13;101667.56;7387900;19;20389;-68
2022/10/09 04:40:44;;;;;;;3.08;0.50;;;;;;;12.63;79.63;101663.97;7385350;19;20136;-69
2022/10/09 04:43:11;;;;;;;2.22;0.50;;;;;;;12.59;79.12;101657.31;7386535;19;20018;-68
2022/10/09 04:45:39;;;;;;;6.10;0.40;;;;;;;12.60;79.43;101645.75;7386602;19;20014;-68
2022/10/09 04:48:06;;;;;;;6.55;0.40;;;;;;;12.63;79.59;101650.75;7386128;19;20014;-69
2022/10/09 04:50:32;;;;;;;9.20;0.98;;;;;;;12.67;80.97;101645.03;7380676;19;20018;-68
2022/10/09 04:52:59;;;;;;;5.65;0.40;;;;;;;12.67;80.54;101646.84;7386778;19;20035;-68
2022/10/09 04:55:26;;;;;;;4.35;0.40;;;;;;;12.69;79.95;101643.09;7383000;19;20022;-68
2022/10/09 04:57:53;;;;;;;5.22;0.50;;;;;;;12.72;80.08;101644.59;7379920;19;20044;-68
2022/10/09 05:00:20;;;;;;;3.33;0.32;;;;;;;12.72;79.78;101640.16;7385189;19;20007;-68
2022/10/09 05:02:47;;;;;;;2.78;0.40;;;;;;;12.74;79.58;101632.94;7385774;19;20010;-68
2022/10/09 05:05:14;;;;;;;2.38;0.82;;;;;;;12.73;78.67;101635.72;7386718;19;20018;-69
2022/10/09 05:07:41;;;;;;;4.40;0.55;;;;;;;12.72;78.73;101629.59;7385614;19;20078;-68
2022/10/09 05:10:08;;;;;;;4.75;0.20;;;;;;;12.74;78.94;101632.09;7384473;19;20022;-68
2022/10/09 05:12:34;;;;;;;4.63;0.30;;;;;;;12.77;79.01;101629.16;7384045;19;20019;-69
2022/10/09 05:15:01;;;;;;;6.05;0.98;;;;;;;12.77;78.98;101631.78;7384386;19;20030;-69
2022/10/09 05:17:28;;;;;;;3.35;0.35;;;;;;;12.76;78.90;101628.31;7386180;19;20014;-68
2022/10/09 05:19:55;;;;;;;2.47;0.38;;;;;;;12.76;78.83;101632.75;7385109;19;20011;-68
2022/10/09 05:22:22;;;;;;;4.50;0.40;;;;;;;12.76;78.92;101627.47;7386247;19;20491;-68
2022/10/09 05:24:49;;;;;;;4.78;0.60;;;;;;;12.76;78.78;101624.84;7383781;19;20018;-69
2022/10/09 05:27:16;;;;;;;5.28;0.30;;;;;;;12.75;78.76;101631.09;7381467;19;20010;-69
2022/10/09 05:29:42;;;;;;;2.15;0.30;;;;;;;12.74;78.54;101624.19;7384294;19;20045;-69
2022/10/09 05:32:09;;;;;;;5.15;0.40;;;;;;;12.71;78.53;101622.66;7384329;19;20046;-68
2022/10/09 05:34:36;;;;;;;5.60;0.52;;;;;;;12.72;78.55;101626.13;7385376;19;20179;-68
2022/10/09 05:37:03;;;;;;;4.88;0.40;;;;;;;12.69;78.16;101614.06;7384448;19;20518;-68
2022/10/09 05:39:31;;;;;;;7.53;0.40;;;;;;;12.69;78.91;101619.34;7385768;19;20014;-69
2022/10/09 05:41:58;;;;;;;5.07;0.40;;;;;;;12.68;78.56;101616.84;7382901;19;20448;-68
2022/10/09 05:44:24;;;;;;;3.40;0.30;;;;;;;12.68;79.05;101619.47;7383898;19;20026;-68
2022/10/09 05:46:51;;;;;;;5.32;0.68;;;;;;;12.66;78.74;101618.78;7385220;19;20034;-69
2022/10/09 05:49:18;;;;;;;3.58;0.40;;;;;;;12.65;78.75;101622.38;7378938;19;20018;-67
2022/10/09 05:51:45;;;;;;;3.67;0.63;;;;;;;12.65;79.16;101619.75;7385280;19;20014;-68
2022/10/09 05:54:14;;;;;;;2.92;0.68;;;;;;;12.64;79.44;101621.59;7382925;19;20011;-68
2022/10/09 05:56:42;;;;;;;6.05;0.50;;;;;;;12.64;80.03;101608.38;7382410;19;20236;-68
2022/10/09 05:59:14;;;;;;;4.88;0.50;;;;;;;12.65;79.63;101617.94;7380326;19;20015;-68
2022/10/09 06:01:43;;;;;;;3.20;0.30;;;;;;;12.64;79.30;101615.47;7385724;19;20035;-68
2022/10/09 06:04:15;;;;;;;4.72;0.52;;;;;;;12.63;79.33;101608.53;7391055;19;20018;-68
2022/10/09 06:06:43;;;;;;;5.63;0.47;;;;;;;12.59;79.62;101610.63;7391118;19;20797;-68
2022/10/09 06:09:10;;;;;;;4.75;0.40;;;;;;;12.58;79.45;101616.88;7389181;19;20022;-68
2022/10/09 06:11:38;;;;;;;6.65;1.15;;;;;;;12.56;79.65;101608.28;7392209;19;20694;-69
2022/10/09 06:14:07;;;;;;;4.25;0.60;;;;;;;12.56;79.87;101607.44;7392059;19;20046;-67
2022/10/09 06:16:36;;;;;;;4.57;0.50;;;;;;;12.59;80.44;101618.56;7390635;19;20356;-67
2022/10/09 06:19:05;;;;;;;4.88;0.60;;;;;;;12.59;80.28;101617.72;7392064;19;20026;-67
2022/10/09 06:21:32;;;;;;;4.43;0.50;;;;;;;12.57;80.41;101612.56;7389278;19;20018;-67
2022/10/09 06:24:01;;;;;;;4.53;0.77;;;;;;;12.58;81.08;101611.59;7391957;19;20043;-68
2022/10/09 06:26:29;;;;;;;6.18;0.50;;;;;;;12.57;81.02;101612.56;7390672;19;20017;-67
2022/10/09 06:28:58;;;;;;;4.57;0.43;;;;;;;12.56;80.67;101610.06;7389722;19;20019;-69
2022/10/09 06:31:27;;;;;;;5.25;0.50;;;;;;;12.59;81.31;101612.44;7389145;19;20699;-67
2022/10/09 06:33:54;;;;;;;4.93;0.40;;;;;;;12.60;81.08;101608.78;7390747;19;20014;-67
2022/10/09 06:36:24;;;;;;;5.15;0.30;;;;;;;12.60;80.87;101608.78;7391064;19;20043;-67
2022/10/09 06:38:52;;;;;;;5.53;0.55;;;;;;;12.58;80.94;101600.22;7392253;19;20046;-67
2022/10/09 06:41:21;;;;;;;2.70;0.40;;;;;;;12.58;81.05;101608.13;7389112;19;20125;-67
2022/10/09 06:43:59;;;;;;;6.18;0.50;;;;;;;12.57;80.73;101604.66;7389076;19;20015;-69
2022/10/09 06:46:35;;;;;;;6.30;0.73;;;;;;;12.57;81.03;101609.09;7385068;19;20046;-67
2022/10/09 06:49:03;;;;;;;7.68;0.88;;;;;;;12.59;81.71;101607.16;7387034;19;20018;-67
2022/10/09 06:51:31;;;;;;;6.43;0.60;;;;;;;12.59;81.67;101599.25;7390274;19;20138;-67
2022/10/09 06:54:01;;;;;;;3.70;0.50;;;;;;;12.60;81.81;101604.34;7390276;19;20014;-68
2022/10/09 06:56:30;;;;;;;2.70;0.55;;;;;;;12.60;81.87;101603.50;7389222;19;20475;-68
2022/10/09 06:59:01;;;;;;;6.78;0.40;;;;;;;12.61;82.04;101595.47;7387193;19;20014;-70
2022/10/09 07:01:30;;;;;;;5.45;0.50;;;;;;;12.62;82.18;101598.94;7386340;19;20023;-68
2022/10/09 07:04:04;;;;;;;6.47;0.60;;;;;;;12.62;82.13;101586.56;7389545;19;20473;-68
2022/10/09 07:06:33;;;;;;;3.15;0.60;;;;;;;12.64;82.15;101591.72;7390585;19;20050;-67
2022/10/09 07:09:03;;;;;;;4.72;0.50;;;;;;;12.65;82.54;101586.25;7387452;19;20018;-67
2022/10/09 07:11:35;;;;;;;5.40;0.70;;;;;;;12.67;82.11;101594.88;7389096;19;20039;-67
2022/10/09 07:14:05;;;;;;;5.77;0.60;;;;;;;12.67;81.91;101588.75;7387542;19;20010;-67
2022/10/09 07:16:40;;;;;;;8.35;0.63;;;;;;;12.65;81.67;101588.91;7389331;19;20047;-68
2022/10/09 07:19:10;;;;;;;7.03;0.50;;;;;;;12.66;82.01;101579.16;7390478;19;20007;-68
2022/10/09 07:21:40;;;;;;;3.08;0.32;;;;;;;12.69;82.00;101581.53;7389514;19;20011;-67
2022/10/09 07:24:07;;;;;;;4.57;0.70;;;;;;;12.69;81.91;101581.53;7389298;19;20337;-69
2022/10/09 07:26:36;;;;;;;5.70;0.75;;;;;;;12.71;81.84;101582.19;7388344;19;20006;-66
2022/10/09 07:29:05;;;;;;;5.05;0.50;;;;;;;12.72;81.94;101574.13;7385913;19;20029;-67
2022/10/09 07:31:32;;;;;;;5.13;0.60;;;;;;;12.71;82.21;101575.13;7386318;19;20014;-68
2022/10/09 07:34:00;;;;;;;2.75;0.50;;;;;;;12.75;82.25;101580.91;7390096;19;20042;-68
2022/10/09 07:36:27;;;;;;;4.65;0.40;;;;;;;12.79;82.44;101577.03;7387243;19;20565;-67
2022/10/09 07:38:56;;;;;;;4.00;0.40;;;;;;;12.81;82.39;101582.97;7390265;19;20018;-69
2022/10/09 07:41:25;;;;;;;3.55;0.40;;;;;;;12.85;82.16;101584.31;7387138;19;20043;-68
2022/10/09 07:43:52;;;;;;;5.30;0.47;;;;;;;12.88;82.28;101584.06;7387905;19;20014;-68
2022/10/09 07:46:21;;;;;;;5.50;0.50;;;;;;;12.92;82.19;101581.94;7388058;19;20046;-68
2022/10/09 07:48:49;;;;;;;3.80;0.50;;;;;;;12.95;81.99;101579.00;7388543;19;20074;-67
2022/10/09 07:51:21;;;;;;;2.63;0.50;;;;;;;12.97;82.28;101580.50;7386668;19;20014;-67
2022/10/09 07:53:48;;;;;;;5.95;0.65;;;;;;;13.02;82.34;101582.69;7389914;19;20062;-69
2022/10/09 07:56:20;;;;;;;5.82;0.55;;;;;;;13.07;81.75;101575.16;7384883;19;20038;-67
2022/10/09 07:58:50;;;;;;;8.38;0.40;;;;;;;13.18;81.51;101574.97;7388672;19;20019;-68
2022/10/09 08:01:17;;;;;;;4.45;0.85;;;;;;;13.36;80.74;101580.25;7381779;19;20006;-68
2022/10/09 08:03:46;;;;;;;5.20;0.50;;;;;;;13.55;80.02;101577.44;7388748;19;20018;-67
2022/10/09 08:06:13;;;;;;;4.93;0.63;;;;;;;13.59;79.52;101579.63;7385330;19;20038;-69
2022/10/09 08:08:40;;;;;;;6.28;0.70;;;;;;;13.58;79.35;101571.84;7387460;19;20014;-68
2022/10/09 08:11:09;;;;;;;7.10;0.50;;;;;;;13.55;79.84;101572.97;7385985;19;20010;-69
2022/10/09 08:13:37;;;;;;;5.50;0.60;;;;;;;13.55;79.60;101575.63;7386532;19;20019;-67
2022/10/09 08:16:05;;;;;;;5.65;0.52;;;;;;;13.54;80.24;101579.25;7386260;19;20019;-67
2022/10/09 08:18:32;;;;;;;3.83;0.30;;;;;;;13.54;80.16;101573.97;7389566;19;20006;-67
2022/10/09 08:21:01;;;;;;;4.25;0.40;;;;;;;13.55;79.46;101566.88;7386952;19;20010;-70
2022/10/09 08:23:29;;;;;;;5.47;0.60;;;;;;;13.60;79.76;101554.84;7387855;19;20015;-69
2022/10/09 08:25:55;;;;;;;3.97;0.50;;;;;;;13.64;79.87;101564.13;7383827;19;20393;-68
2022/10/09 08:28:22;;;;;;;3.75;0.40;;;;;;;13.69;79.04;101555.72;7386086;19;20440;-68
2022/10/09 08:30:50;;;;;;;4.28;0.38;;;;;;;13.74;78.88;101553.44;7385250;19;20014;-68
2022/10/09 08:33:22;;;;;;;2.95;0.40;;;;;;;13.80;79.19;101554.63;7388330;19;20028;-68
2022/10/09 08:35:50;;;;;;;8.52;0.70;;;;;;;13.83;79.60;101556.97;7384959;19;20122;-68
2022/10/09 08:38:26;;;;;;;4.65;0.50;;;;;;;13.89;79.68;101559.00;7387740;19;20608;-67
2022/10/09 08:41:48;;;;;;;2.90;0.65;;;;;;;13.96;80.07;101554.75;7384531;19;20017;-68
2022/10/09 08:44:21;;;;;;;7.95;0.90;;;;;;;13.99;80.07;101560.53;7385253;19;20052;-67
2022/10/09 08:47:06;;;;;;;5.40;0.73;;;;;;;14.02;79.69;101554.91;7387425;19;20367;-68
2022/10/09 08:49:48;;;;;;;8.85;0.57;;;;;;;14.08;79.92;101556.94;7382468;19;20018;-68
2022/10/09 08:52:35;;;;;;;5.80;0.40;;;;;;;14.11;79.90;101554.00;7385585;19;20019;-67
2022/10/09 08:55:12;;;;;;;4.57;0.60;;;;;;;14.20;80.14;101551.38;7383608;19;20023;-67
2022/10/09 08:57:39;;;;;;;4.82;0.40;;;;;;;14.27;80.31;101553.25;7383938;19;20029;-68
2022/10/09 09:00:13;;;;;;;3.55;0.30;;;;;;;14.35;79.72;101547.16;7385759;19;20381;-70
2022/10/09 09:03:02;;;;;;;3.92;0.30;;;;;;;14.44;79.14;101541.75;7381742;19;20011;-68
2022/10/09 09:05:54;;;;;;;7.65;0.52;;;;;;;14.52;78.69;101541.78;7382433;19;20014;-68
2022/10/09 09:08:54;;;;;;;8.18;0.30;;;;;;;14.66;77.90;101545.63;7384964;19;20030;-69
2022/10/09 09:11:23;;;;;;;5.70;0.90;;;;;;;14.78;78.05;101535.56;7382833;19;20035;-68
2022/10/09 09:14:09;;;;;;;6.63;0.60;;;;;;;14.96;81.61;101536.25;7386105;19;20021;-68
2022/10/09 09:16:54;;;;;;;3.58;0.30;;;;;;;15.10;79.37;101529.47;7382254;19;20010;-68
2022/10/09 09:19:33;;;;;;;11.45;3.47;;;;;;;15.22;79.44;101528.97;7380255;19;20034;-68
2022/10/09 09:22:00;;;;;;;4.72;0.98;;;;;;;15.31;78.38;101527.16;7386331;19;20058;-68
2022/10/09 09:24:37;;;;;;;8.55;0.50;;;;;;;15.40;77.19;101524.31;7384562;19;20043;-68
2022/10/09 09:27:12;;;;;;;4.88;0.40;;;;;;;15.47;76.31;101521.84;7384725;19;20019;-68
2022/10/09 09:29:47;;;;;;;2.53;0.40;;;;;;;15.54;75.45;101516.75;7382657;19;20685;-69
2022/10/09 09:32:19;;;;;;;5.95;0.35;;;;;;;15.62;75.25;101511.41;7383624;19;20022;-69
2022/10/09 09:34:46;;;;;;;4.83;0.30;;;;;;;15.70;74.90;101511.38;7383312;19;20015;-69
2022/10/09 09:37:14;;;;;;;6.38;0.50;;;;;;;15.75;74.96;101509.88;7384457;19;20040;-68
2022/10/09 09:39:45;;;;;;;5.45;0.30;;;;;;;15.81;75.28;101503.91;7384894;19;20018;-68
2022/10/09 09:42:31;;;;;;;5.97;0.70;;;;;;;15.92;75.13;101509.84;7383585;19;20094;-67
2022/10/09 09:45:02;;;;;;;5.07;0.57;;;;;;;15.99;73.43;101502.84;7382565;19;20053;-67
2022/10/09 09:47:39;;;;;;;6.10;0.60;;;;;;;16.05;72.15;101494.22;7384754;19;20023;-68
2022/10/09 09:50:06;;;;;;;9.70;0.70;;;;;;;16.14;72.42;101498.50;7384088;19;20035;-69
2022/10/09 09:52:54;;;;;;;4.10;0.50;;;;;;;16.23;72.52;101494.78;7380072;19;20385;-69
2022/10/09 09:55:29;;;;;;;5.68;1.15;;;;;;;16.29;71.91;101496.75;7382044;19;20333;-72
2022/10/09 09:58:03;;;;;;;5.05;0.30;;;;;;;16.33;71.03;101492.75;7382573;19;20039;-68
2022/10/09 10:00:31;;;;;;;3.83;0.40;;;;;;;16.39;70.65;101489.41;7383856;19;20026;-68
2022/10/09 10:03:17;;;;;;;8.63;0.43;;;;;;;16.43;70.89;101485.38;7377778;19;20939;-68
2022/10/09 10:05:44;;;;;;;10.73;0.70;;;;;;;16.47;69.75;101488.50;7374357;19;20108;-67
2022/10/09 10:08:35;;;;;;;7.90;1.15;;;;;;;16.53;69.71;101487.81;7380336;19;20018;-67
2022/10/09 10:11:06;;;;;;;5.13;0.30;;;;;;;16.56;69.05;101466.19;7374386;19;20026;-68
2022/10/09 10:13:45;;;;;;;2.90;0.30;;;;;;;16.59;69.16;101466.72;7381778;19;20412;-66
2022/10/09 10:16:23;;;;;;;6.50;0.20;;;;;;;16.62;68.03;101469.03;7379546;19;20014;-68
2022/10/09 10:18:52;;;;;;;2.15;0.25;;;;;;;16.70;69.97;101464.66;7382767;19;20025;-68
2022/10/09 10:21:19;;;;;;;3.97;0.50;;;;;;;16.74;72.01;101461.47;7378379;19;20011;-67
2022/10/09 10:23:57;;;;;;;7.60;0.70;;;;;;;16.73;70.17;101451.00;7380590;19;20046;-67
2022/10/09 10:26:57;;;;;;;5.38;0.40;;;;;;;16.71;68.96;101455.69;7380294;19;20031;-67
2022/10/09 10:29:45;;;;;;;9.93;0.70;;;;;;;16.71;69.04;101451.19;7375411;19;20006;-67
2022/10/09 10:32:31;;;;;;;3.65;0.40;;;;;;;16.73;68.66;101445.69;7382990;19;20006;-67
2022/10/09 10:35:00;;;;;;;4.97;0.43;;;;;;;16.75;68.55;101436.56;7381613;19;20003;-68
2022/10/09 10:37:37;;;;;;;4.95;0.30;;;;;;;16.81;68.70;101429.69;7384440;19;20668;-68
2022/10/09 10:40:25;;;;;;;5.05;0.30;;;;;;;16.84;67.97;101432.81;7379961;19;20487;-67
2022/10/09 10:43:10;;;;;;;2.58;0.20;;;;;;;16.88;67.34;101431.44;7380378;19;20021;-67
2022/10/09 10:45:42;;;;;;;3.83;0.40;;;;;;;16.92;67.65;101413.31;7379427;19;20043;-68
2022/10/09 10:48:25;;;;;;;5.43;0.30;;;;;;;16.96;67.32;101404.81;7376082;19;20026;-67
2022/10/09 10:51:23;;;;;;;3.67;0.40;;;;;;;17.02;67.21;101408.56;7345541;19;20018;-68
2022/10/09 10:54:15;;;;;;;2.17;0.20;;;;;;;17.04;66.79;101401.22;7377868;19;20007;-66
2022/10/09 10:56:48;;;;;;;3.15;0.32;;;;;;;17.07;66.68;101395.53;7383227;19;20019;-67
2022/10/09 10:59:38;;;;;;;4.10;0.40;;;;;;;17.10;67.39;101398.69;7387163;19;20022;-69
2022/10/09 11:02:20;;;;;;;2.25;0.40;;;;;;;17.12;68.04;101390.50;7383054;19;20018;-70
2022/10/09 11:04:59;;;;;;;3.65;0.40;;;;;;;17.14;67.05;101393.00;7378593;19;20418;-68
2022/10/09 11:07:40;;;;;;;3.60;0.45;;;;;;;17.14;66.89;101380.53;7387484;19;20373;-68
2022/10/09 11:10:22;;;;;;;4.03;0.40;;;;;;;17.14;66.64;101377.03;7381663;19;20014;-68
2022/10/09 11:12:59;;;;;;;5.60;0.40;;;;;;;17.11;66.78;101362.28;7383755;19;20368;-69
2022/10/09 11:15:36;;;;;;;3.50;0.30;;;;;;;17.12;67.88;101363.13;7386032;19;20017;-67
2022/10/09 11:18:41;;;;;;;4.88;0.63;;;;;;;17.11;67.95;101359.63;7388564;19;20039;-69
2022/10/09 11:21:14;;;;;;;1.50;0.30;;;;;;;17.10;66.73;101358.81;7380826;19;20037;-69
2022/10/09 11:23:55;;;;;;;;;;;;;;;17.14;65.91;101343.28;7390800;19;20038;-69
2022/10/09 11:26:35;;;;;;;4.90;0.30;;;;;;;17.20;64.83;101347.88;7386583;19;19922;-69
2022/10/09 11:29:17;;;;;;;5.10;0.25;;;;;;;17.28;63.74;101341.63;7384585;19;20010;-70
2022/10/09 11:31:57;;;;;;;4.82;0.30;;;;;;;17.33;62.48;101333.94;7386892;19;20011;-70
2022/10/09 11:34:34;;;;;;;5.85;0.22;;;;;;;17.39;61.86;101325.22;7388205;19;20030;-68
2022/10/09 11:37:07;;;;;;;1.38;0.20;;;;;;;17.45;61.31;101329.81;7389899;19;20014;-67
2022/10/09 11:39:36;;;;;;;3.85;0.52;;;;;;;17.46;60.78;101329.63;7387978;19;20047;-68
2022/10/09 11:42:04;;;;;;;3.95;0.50;;;;;;;17.52;60.29;101328.06;7387320;19;20010;-68
2022/10/09 11:44:31;;;;;;;3.75;0.22;;;;;;;17.57;60.95;101312.34;7385160;19;20693;-68
2022/10/09 11:47:30;;;;;;;2.70;0.30;;;;;;;17.65;60.47;101317.59;7387598;19;20046;-68